Time;durP1;ratioP1;P1;durP2;ratioP2;P2;SDS_P1;SDS_P2;PMS_P1;PMS_P2;Temp;Humidity;BMP_temperature;BMP_pressure;BME280_temperature;BME280_humidity;BME280_pressure;Samples;Min_cycle;Max_cycle;Signal;HPM_P1;HPM_P2
2023/04/11 00:01:32;;;;;;;;;;;17.20;63.60;;;;;;5077751;28;793;-71
2023/04/11 00:03:57;;;;;;;;;;;17.20;63.60;;;;;;5073220;28;945;-71
2023/04/11 00:06:23;;;;;;;;;;;17.20;63.60;;;;;;5080257;28;1211;-71
2023/04/11 00:08:49;;;;;;;;;;;17.20;63.70;;;;;;5076286;28;943;-71
2023/04/11 00:11:15;;;;;;;;;;;17.20;63.70;;;;;;5071412;28;811;-71
2023/04/11 00:13:40;;;;;;;;;;;17.20;63.70;;;;;;5069979;28;1946;-70
2023/04/11 00:16:07;;;;;;;;;;;17.20;63.70;;;;;;5071679;28;1298;-70
2023/04/11 00:18:35;;;;;;;;;;;17.20;63.70;;;;;;5074235;28;815;-70
2023/04/11 00:21:02;;;;;;;;;;;17.20;63.70;;;;;;5076202;28;1180;-69
2023/04/11 00:23:28;;;;;;;;;;;17.20;63.70;;;;;;5074710;28;1519;-70
2023/04/11 00:25:53;;;;;;;;;;;17.10;63.70;;;;;;5076289;28;1290;-71
2023/04/11 00:28:19;;;;;;;;;;;17.10;63.70;;;;;;5074492;28;1457;-71
2023/04/11 00:30:44;;;;;;;;;;;17.20;63.80;;;;;;5073757;28;1462;-72
2023/04/11 00:33:09;;;;;;;;;;;17.20;63.80;;;;;;5071730;28;1960;-72
2023/04/11 00:35:36;;;;;;;;;;;17.10;63.80;;;;;;5074551;28;1339;-70
2023/04/11 00:38:02;;;;;;;;;;;17.10;63.80;;;;;;5072238;28;1401;-71
2023/04/11 00:40:28;;;;;;;;;;;17.10;63.80;;;;;;5070324;28;1346;-72
2023/04/11 00:42:54;;;;;;;;;;;17.20;63.80;;;;;;5072073;28;1274;-72
2023/04/11 00:45:20;;;;;;;;;;;17.10;63.80;;;;;;5074249;28;1274;-71
2023/04/11 00:47:45;;;;;;;;;;;17.10;63.80;;;;;;5075266;28;1262;-73
2023/04/11 00:50:12;;;;;;;;;;;17.10;63.80;;;;;;5073455;28;1422;-72
2023/04/11 00:52:38;;;;;;;;;;;17.10;63.90;;;;;;5074051;28;1959;-71
2023/04/11 00:55:04;;;;;;;;;;;17.10;63.90;;;;;;5068041;28;1597;-68
2023/04/11 00:57:31;;;;;;;;;;;17.10;63.90;;;;;;5074691;28;1290;-69
2023/04/11 00:59:57;;;;;;;;;;;17.10;63.90;;;;;;5071535;28;874;-69
2023/04/11 01:02:23;;;;;;;;;;;17.10;63.90;;;;;;5074168;28;867;-69
2023/04/11 01:04:49;;;;;;;;;;;17.10;63.90;;;;;;5077458;28;875;-69
2023/04/11 01:07:15;;;;;;;;;;;17.10;63.90;;;;;;5073755;28;1236;-69
2023/04/11 01:09:40;;;;;;;;;;;17.10;64.00;;;;;;5073660;28;805;-69
2023/04/11 01:12:06;;;;;;;;;;;17.10;63.90;;;;;;5074234;28;2044;-69
2023/04/11 01:14:31;;;;;;;;;;;17.10;64.00;;;;;;5060556;28;809;-69
2023/04/11 01:17:00;;;;;;;;;;;17.10;64.00;;;;;;5080679;28;1244;-69
2023/04/11 01:19:26;;;;;;;;;;;17.10;64.00;;;;;;5078145;28;827;-69
2023/04/11 01:21:52;;;;;;;;;;;17.10;64.00;;;;;;5070318;28;891;-70
2023/04/11 01:24:17;;;;;;;;;;;17.10;64.00;;;;;;5069952;28;933;-69
2023/04/11 01:26:42;;;;;;;;;;;17.10;64.00;;;;;;5071606;28;1351;-70
2023/04/11 01:29:08;;;;;;;;;;;17.10;64.00;;;;;;5069162;28;998;-70
2023/04/11 01:31:33;;;;;;;;;;;17.10;64.00;;;;;;5071527;28;1890;-69
2023/04/11 01:33:59;;;;;;;;;;;17.10;64.10;;;;;;5075682;28;1294;-69
2023/04/11 01:36:25;;;;;;;;;;;17.10;64.10;;;;;;5073501;28;1264;-69
2023/04/11 01:38:51;;;;;;;;;;;17.10;64.20;;;;;;5069684;28;1396;-70
2023/04/11 01:41:16;;;;;;;;;;;17.10;64.10;;;;;;5071841;28;1010;-69
2023/04/11 01:43:42;;;;;;;;;;;17.10;64.10;;;;;;5072017;28;783;-70
2023/04/11 01:46:07;;;;;;;;;;;17.10;64.10;;;;;;5071790;28;1251;-70
2023/04/11 01:48:33;;;;;;;;;;;17.10;64.10;;;;;;5062390;28;1034;-71
2023/04/11 01:50:58;;;;;;;;;;;17.10;64.10;;;;;;5074924;28;1150;-72
2023/04/11 01:53:24;;;;;;;;;;;17.10;64.10;;;;;;5075654;28;1975;-71
2023/04/11 01:55:49;;;;;;;;;;;17.10;64.20;;;;;;5077593;28;1349;-71
2023/04/11 01:58:15;;;;;;;;;;;17.10;64.20;;;;;;5072329;28;846;-71
2023/04/11 02:00:40;;;;;;;;;;;17.10;64.20;;;;;;5069027;28;949;-71
2023/04/11 02:03:06;;;;;;;;;;;17.10;64.20;;;;;;5068024;28;831;-71
2023/04/11 02:05:31;;;;;;;;;;;17.10;64.20;;;;;;5076535;28;1297;-71
2023/04/11 02:07:57;;;;;;;;;;;17.10;64.20;;;;;;5073175;28;883;-71
2023/04/11 02:10:22;;;;;;;;;;;17.10;64.20;;;;;;5069134;28;954;-70
2023/04/11 02:12:48;;;;;;;;;;;17.10;64.20;;;;;;5069415;28;1905;-71
2023/04/11 02:15:13;;;;;;;;;;;17.00;64.20;;;;;;5082387;28;1285;-72
2023/04/11 02:17:44;;;;;;;;;;;17.10;64.30;;;;;;5069018;28;918;-69
2023/04/11 02:20:10;;;;;;;;;;;17.10;64.30;;;;;;5062466;28;857;-69
2023/04/11 02:22:35;;;;;;;;;;;17.00;64.20;;;;;;5074179;28;1066;-70
2023/04/11 02:25:01;;;;;;;;;;;17.00;64.20;;;;;;5072874;28;824;-69
2023/04/11 02:27:26;;;;;;;;;;;17.10;64.30;;;;;;5071442;28;1371;-69
2023/04/11 02:29:52;;;;;;;;;;;17.10;64.30;;;;;;5067473;28;862;-69
2023/04/11 02:32:17;;;;;;;;;;;17.00;64.30;;;;;;5070012;28;2044;-70
2023/04/11 02:34:43;;;;;;;;;;;17.10;64.30;;;;;;5078876;28;801;-69
2023/04/11 02:37:09;;;;;;;;;;;17.00;64.30;;;;;;5078399;28;1353;-69
2023/04/11 02:39:34;;;;;;;;;;;17.10;64.30;;;;;;5078500;28;1037;-69
2023/04/11 02:42:00;;;;;;;;;;;17.10;64.40;;;;;;5073475;28;910;-69
2023/04/11 02:44:28;;;;;;;;;;;17.00;64.30;;;;;;5079395;28;860;-69
2023/04/11 02:46:53;;;;;;;;;;;17.10;64.40;;;;;;5078505;28;1346;-71
2023/04/11 02:49:19;;;;;;;;;;;17.00;64.30;;;;;;5081003;28;1078;-71
2023/04/11 02:51:44;;;;;;;;;;;17.10;64.40;;;;;;5070545;28;1894;-71
2023/04/11 02:54:10;;;;;;;;;;;17.10;64.40;;;;;;5081511;28;827;-71
2023/04/11 02:56:37;;;;;;;;;;;17.00;64.30;;;;;;5074350;28;1257;-71
2023/04/11 02:59:04;;;;;;;;;;;17.00;64.30;;;;;;5076784;28;936;-71
2023/04/11 03:01:29;;;;;;;;;;;17.00;64.40;;;;;;5074963;28;827;-71
2023/04/11 03:03:55;;;;;;;;;;;17.00;64.40;;;;;;5077396;28;847;-71
2023/04/11 03:06:22;;;;;;;;;;;17.00;64.40;;;;;;5077798;28;1360;-71
2023/04/11 03:08:48;;;;;;;;;;;17.00;64.40;;;;;;5073375;28;859;-71
2023/04/11 03:11:14;;;;;;;;;;;17.00;64.40;;;;;;5076316;28;938;-71
2023/04/11 03:13:40;;;;;;;;;;;17.10;64.50;;;;;;5071609;28;1926;-71
2023/04/11 03:16:06;;;;;;;;;;;17.10;64.50;;;;;;5074198;28;1276;-75
2023/04/11 03:18:32;;;;;;;;;;;17.00;64.40;;;;;;5056425;28;1396;-69
2023/04/11 03:20:57;;;;;;;;;;;17.00;64.40;;;;;;5075864;28;883;-71
2023/04/11 03:23:23;;;;;;;;;;;17.00;64.50;;;;;;5077818;28;883;-71
2023/04/11 03:25:49;;;;;;;;;;;17.00;64.40;;;;;;5078143;28;1707;-71
2023/04/11 03:28:15;;;;;;;;;;;17.00;64.50;;;;;;5074076;28;800;-71
2023/04/11 03:30:41;;;;;;;;;;;17.00;64.40;;;;;;5079536;28;938;-71
2023/04/11 03:33:07;;;;;;;;;;;17.00;64.50;;;;;;5061512;28;1971;-71
2023/04/11 03:35:32;;;;;;;;;;;17.00;64.50;;;;;;5074201;28;1365;-71
2023/04/11 03:37:58;;;;;;;;;;;17.00;64.50;;;;;;5078810;28;1255;-70
2023/04/11 03:40:23;;;;;;;;;;;17.00;64.50;;;;;;5079844;28;882;-72
2023/04/11 03:42:49;;;;;;;;;;;17.00;64.50;;;;;;5077778;28;812;-71
2023/04/11 03:45:14;;;;;;;;;;;17.00;64.50;;;;;;5076313;28;1254;-71
2023/04/11 03:47:40;;;;;;;;;;;17.00;64.50;;;;;;5076151;28;920;-71
2023/04/11 03:50:06;;;;;;;;;;;17.00;64.60;;;;;;5076732;28;840;-71
2023/04/11 03:52:31;;;;;;;;;;;17.00;64.50;;;;;;5076106;28;1955;-71
2023/04/11 03:54:57;;;;;;;;;;;17.00;64.50;;;;;;5075547;28;958;-72
2023/04/11 03:57:25;;;;;;;;;;;17.00;64.60;;;;;;5074881;28;1268;-72
2023/04/11 03:59:51;;;;;;;;;;;17.00;64.50;;;;;;5079165;28;923;-71
2023/04/11 04:02:16;;;;;;;;;;;17.00;64.60;;;;;;5076991;28;1060;-71
2023/04/11 04:04:45;;;;;;;;;;;17.00;64.50;;;;;;5079370;28;804;-71
2023/04/11 04:07:11;;;;;;;;;;;17.00;64.60;;;;;;5073917;28;1341;-71
2023/04/11 04:09:37;;;;;;;;;;;17.00;64.50;;;;;;5068899;28;871;-70
2023/04/11 04:12:02;;;;;;;;;;;17.00;64.50;;;;;;5071607;28;2016;-70
2023/04/11 04:14:28;;;;;;;;;;;17.00;64.50;;;;;;5074833;28;858;-70
2023/04/11 04:16:53;;;;;;;;;;;17.10;64.40;;;;;;5076184;28;1240;-70
2023/04/11 04:19:19;;;;;;;;;;;17.10;64.30;;;;;;5070341;28;862;-70
2023/04/11 04:21:45;;;;;;;;;;;17.10;64.20;;;;;;5073367;28;903;-70
2023/04/11 04:24:11;;;;;;;;;;;17.20;64.10;;;;;;5075992;28;1011;-70
2023/04/11 04:26:37;;;;;;;;;;;17.20;64.80;;;;;;5073092;28;1256;-70
2023/04/11 04:29:05;;;;;;;;;;;17.20;63.90;;;;;;5075064;28;820;-70
2023/04/11 04:31:32;;;;;;;;;;;17.20;63.80;;;;;;5076911;28;931;-70
2023/04/11 04:34:01;;;;;;;;;;;17.30;63.70;;;;;;5073562;28;1894;-70
2023/04/11 04:36:27;;;;;;;;;;;17.30;63.60;;;;;;5072780;28;1223;-70
2023/04/11 04:38:56;;;;;;;;;;;17.30;63.50;;;;;;5074633;28;1036;-70
2023/04/11 04:41:22;;;;;;;;;;;17.40;63.40;;;;;;5070571;28;856;-70
2023/04/11 04:43:47;;;;;;;;;;;17.40;63.40;;;;;;5071951;28;958;-70
2023/04/11 04:46:13;;;;;;;;;;;17.40;63.30;;;;;;5072837;28;1198;-70
2023/04/11 04:48:38;;;;;;;;;;;17.40;63.20;;;;;;5077123;28;887;-70
2023/04/11 04:51:04;;;;;;;;;;;17.40;63.10;;;;;;5076607;28;998;-70
2023/04/11 04:53:33;;;;;;;;;;;17.50;63.10;;;;;;5071772;28;1886;-70
2023/04/11 04:56:00;;;;;;;;;;;17.50;63.10;;;;;;5069382;28;1240;-70
2023/04/11 04:58:26;;;;;;;;;;;17.50;63.10;;;;;;5068726;28;835;-70
2023/04/11 05:00:54;;;;;;;;;;;17.50;63.00;;;;;;5071199;28;927;-69
2023/04/11 05:03:21;;;;;;;;;;;17.50;62.90;;;;;;5074025;28;898;-70
2023/04/11 05:05:47;;;;;;;;;;;17.50;62.90;;;;;;5076894;28;1431;-70
2023/04/11 05:08:16;;;;;;;;;;;17.50;62.80;;;;;;5078724;28;911;-70
2023/04/11 05:10:41;;;;;;;;;;;17.60;62.80;;;;;;5068150;28;802;-71
2023/04/11 05:13:07;;;;;;;;;;;17.50;62.70;;;;;;5078603;28;2001;-70
2023/04/11 05:15:32;;;;;;;;;;;17.60;62.70;;;;;;5075875;28;1370;-71
2023/04/11 05:17:58;;;;;;;;;;;17.60;62.70;;;;;;5069497;28;1618;-71
2023/04/11 05:20:25;;;;;;;;;;;17.60;62.70;;;;;;5065665;28;892;-70
2023/04/11 05:22:52;;;;;;;;;;;17.60;62.70;;;;;;5074577;28;848;-71
2023/04/11 05:25:17;;;;;;;;;;;17.60;62.70;;;;;;5071259;28;1338;-71
2023/04/11 05:27:43;;;;;;;;;;;17.60;62.60;;;;;;5071238;28;944;-72
2023/04/11 05:30:08;;;;;;;;;;;17.60;62.60;;;;;;5073804;28;914;-71
2023/04/11 05:32:34;;;;;;;;;;;17.60;62.60;;;;;;5077032;28;1959;-72
2023/04/11 05:34:59;;;;;;;;;;;17.60;62.60;;;;;;5073959;28;1158;-72
2023/04/11 05:37:25;;;;;;;;;;;17.60;62.60;;;;;;5075691;28;1260;-72
2023/04/11 05:39:51;;;;;;;;;;;17.60;62.60;;;;;;5076429;28;880;-72
2023/04/11 05:42:17;;;;;;;;;;;17.60;62.60;;;;;;5073874;28;929;-72
2023/04/11 05:44:42;;;;;;;;;;;17.60;62.60;;;;;;5073507;28;897;-72
2023/04/11 05:47:08;;;;;;;;;;;17.60;62.60;;;;;;5071043;28;1347;-71
2023/04/11 05:49:33;;;;;;;;;;;17.60;62.60;;;;;;5072962;28;786;-71
2023/04/11 05:51:59;;;;;;;;;;;17.60;62.60;;;;;;5072195;28;2012;-73
2023/04/11 05:54:34;;;;;;;;;;;17.60;62.70;;;;;;5070720;28;1135;-72
2023/04/11 05:57:00;;;;;;;;;;;17.60;62.70;;;;;;5071912;28;1263;-73
2023/04/11 05:59:27;;;;;;;;;;;17.60;62.70;;;;;;5064624;28;1700;-73
2023/04/11 06:01:53;;;;;;;;;;;17.60;62.70;;;;;;5080251;28;931;-72
2023/04/11 06:04:18;;;;;;;;;;;17.60;62.70;;;;;;5078265;28;839;-71
2023/04/11 06:06:44;;;;;;;;;;;17.60;62.70;;;;;;5069691;28;1247;-70
2023/04/11 06:09:09;;;;;;;;;;;17.60;62.70;;;;;;5068537;28;764;-71
2023/04/11 06:11:35;;;;;;;;;;;17.60;62.80;;;;;;5073070;28;1034;-71
2023/04/11 06:14:00;;;;;;;;;;;17.60;62.80;;;;;;5064383;28;1918;-71
2023/04/11 06:16:26;;;;;;;;;;;17.60;62.80;;;;;;5064537;28;1771;-68
2023/04/11 06:18:51;;;;;;;;;;;17.60;62.80;;;;;;5070335;28;2100;-72
2023/04/11 06:21:17;;;;;;;;;;;17.60;62.80;;;;;;5069686;28;1303;-72
2023/04/11 06:23:42;;;;;;;;;;;17.60;62.80;;;;;;5074143;28;1328;-72
2023/04/11 06:26:08;;;;;;;;;;;17.60;62.90;;;;;;5068506;28;1272;-72
2023/04/11 06:28:33;;;;;;;;;;;17.50;62.80;;;;;;5071627;28;800;-72
2023/04/11 06:30:59;;;;;;;;;;;17.60;62.90;;;;;;5073500;28;887;-71
2023/04/11 06:33:24;;;;;;;;;;;17.60;62.90;;;;;;5076386;28;1898;-71
2023/04/11 06:35:50;;;;;;;;;;;17.60;62.90;;;;;;5070334;28;1354;-71
2023/04/11 06:38:15;;;;;;;;;;;17.60;62.90;;;;;;5073627;28;1226;-71
2023/04/11 06:40:41;;;;;;;;;;;17.50;62.90;;;;;;5074025;28;927;-74
2023/04/11 06:43:06;;;;;;;;;;;17.50;62.90;;;;;;5078360;28;831;-69
2023/04/11 06:45:32;;;;;;;;;;;17.50;62.90;;;;;;5071597;28;1361;-70
2023/04/11 06:47:57;;;;;;;;;;;17.60;63.00;;;;;;5076688;28;875;-69
2023/04/11 06:50:22;;;;;;;;;;;17.50;62.90;;;;;;5076344;28;1072;-70
2023/04/11 06:52:48;;;;;;;;;;;17.50;63.00;;;;;;5072207;28;1917;-69
2023/04/11 06:55:14;;;;;;;;;;;17.60;63.00;;;;;;5065703;28;942;-71
2023/04/11 06:57:40;;;;;;;;;;;17.50;63.00;;;;;;5068663;28;938;-72
2023/04/11 07:00:06;;;;;;;;;;;17.50;63.00;;;;;;5070297;28;853;-72
2023/04/11 07:02:34;;;;;;;;;;;17.50;63.10;;;;;;5071982;28;867;-71
2023/04/11 07:05:00;;;;;;;;;;;17.50;63.00;;;;;;5068456;28;913;-72
2023/04/11 07:07:26;;;;;;;;;;;17.50;63.10;;;;;;5074887;28;1279;-72
2023/04/11 07:09:51;;;;;;;;;;;17.50;63.10;;;;;;5054622;28;1083;-70
2023/04/11 07:12:17;;;;;;;;;;;17.50;63.10;;;;;;5071926;28;1973;-71
2023/04/11 07:14:42;;;;;;;;;;;17.50;63.10;;;;;;5065182;28;1241;-70
2023/04/11 07:17:08;;;;;;;;;;;17.50;63.80;;;;;;5073451;28;1377;-71
2023/04/11 07:19:34;;;;;;;;;;;17.50;63.10;;;;;;5066848;28;910;-72
2023/04/11 07:21:59;;;;;;;;;;;17.50;63.10;;;;;;5074340;28;848;-71
2023/04/11 07:24:25;;;;;;;;;;;17.50;63.10;;;;;;5077027;28;892;-71
2023/04/11 07:26:52;;;;;;;;;;;17.50;63.20;;;;;;5073967;28;1282;-71
2023/04/11 07:29:17;;;;;;;;;;;17.50;63.20;;;;;;5074892;28;1311;-70
2023/04/11 07:31:43;;;;;;;;;;;17.50;63.20;;;;;;5075454;28;824;-70
2023/04/11 07:34:09;;;;;;;;;;;17.50;63.20;;;;;;5074805;28;1882;-74
2023/04/11 07:36:35;;;;;;;;;;;17.50;63.20;;;;;;5072596;28;1549;-72
2023/04/11 07:39:00;;;;;;;;;;;17.50;63.20;;;;;;5076713;28;1022;-72
2023/04/11 07:41:26;;;;;;;;;;;17.50;63.30;;;;;;5076308;28;895;-72
2023/04/11 07:43:51;;;;;;;;;;;17.50;63.30;;;;;;5080839;28;891;-72
2023/04/11 07:46:17;;;;;;;;;;;17.50;63.30;;;;;;5073942;28;1346;-70
2023/04/11 07:48:42;;;;;;;;;;;17.50;63.40;;;;;;5073537;28;868;-71
2023/04/11 07:51:08;;;;;;;;;;;17.50;63.40;;;;;;5074715;28;836;-71
2023/04/11 07:53:33;;;;;;;;;;;17.50;63.40;;;;;;5051092;28;1894;-71
2023/04/11 07:55:59;;;;;;;;;;;17.40;63.30;;;;;;5074293;28;1264;-70
2023/04/11 07:58:25;;;;;;;;;;;17.50;63.40;;;;;;5067785;28;887;-71
2023/04/11 08:00:51;;;;;;;;;;;17.50;63.50;;;;;;5077353;28;879;-71
2023/04/11 08:03:17;;;;;;;;;;;17.40;63.40;;;;;;5077232;28;878;-71
2023/04/11 08:05:42;;;;;;;;;;;17.40;63.40;;;;;;5072626;28;1327;-72
2023/04/11 08:08:08;;;;;;;;;;;17.40;63.40;;;;;;5071558;28;875;-70
2023/04/11 08:10:33;;;;;;;;;;;17.50;63.50;;;;;;5074747;28;867;-71
2023/04/11 08:12:59;;;;;;;;;;;17.50;63.50;;;;;;5072416;28;1898;-71
2023/04/11 08:15:24;;;;;;;;;;;17.50;63.50;;;;;;5071222;28;1277;-71
2023/04/11 08:17:50;;;;;;;;;;;17.50;63.50;;;;;;5069123;28;843;-70
2023/04/11 08:20:16;;;;;;;;;;;17.50;63.40;;;;;;5045296;28;1199;-71
2023/04/11 08:22:43;;;;;;;;;;;17.50;63.40;;;;;;5071493;28;883;-71
2023/04/11 08:25:09;;;;;;;;;;;17.50;63.30;;;;;;5075783;28;867;-70
2023/04/11 08:27:35;;;;;;;;;;;17.50;63.30;;;;;;5075968;28;1380;-70
2023/04/11 08:30:00;;;;;;;;;;;17.50;63.30;;;;;;5072418;28;1409;-70
2023/04/11 08:32:26;;;;;;;;;;;17.50;63.20;;;;;;5071741;28;2190;-70
2023/04/11 08:34:51;;;;;;;;;;;17.60;63.20;;;;;;5074554;28;1346;-70
2023/04/11 08:37:17;;;;;;;;;;;17.50;63.10;;;;;;5077192;28;1522;-70
2023/04/11 08:39:42;;;;;;;;;;;17.60;63.90;;;;;;5071815;28;854;-70
2023/04/11 08:42:28;;;;;;;;;;;17.50;63.10;;;;;;5070311;28;922;-70
2023/04/11 08:44:57;;;;;;;;;;;17.60;63.20;;;;;;5074127;28;1268;-70
2023/04/11 08:47:23;;;;;;;;;;;17.60;63.00;;;;;;5072566;28;2060;-69
2023/04/11 08:49:48;;;;;;;;;;;17.60;63.00;;;;;;5068071;28;1413;-70
2023/04/11 08:52:14;;;;;;;;;;;17.60;63.00;;;;;;5072287;28;1959;-70
2023/04/11 08:54:40;;;;;;;;;;;17.60;63.00;;;;;;5073690;28;1418;-70
2023/04/11 08:57:05;;;;;;;;;;;17.60;62.90;;;;;;5077776;28;1261;-70
2023/04/11 08:59:34;;;;;;;;;;;17.60;62.90;;;;;;5074417;28;2158;-70
2023/04/11 09:02:07;;;;;;;;;;;17.60;62.80;;;;;;5072389;28;1323;-70
2023/04/11 09:04:39;;;;;;;;;;;17.70;62.80;;;;;;5071029;28;1360;-70
2023/04/11 09:07:05;;;;;;;;;;;17.70;62.80;;;;;;5070435;28;1927;-71
2023/04/11 09:09:31;;;;;;;;;;;17.70;62.80;;;;;;5074780;28;1488;-71
2023/04/11 09:11:57;;;;;;;;;;;17.70;62.70;;;;;;5076941;28;1905;-72
2023/04/11 09:14:23;;;;;;;;;;;17.70;62.70;;;;;;5071269;28;812;-70
2023/04/11 09:16:59;;;;;;;;;;;17.70;62.70;;;;;;5068704;28;1389;-71
2023/04/11 09:19:28;;;;;;;;;;;17.70;62.70;;;;;;5076046;28;839;-71
2023/04/11 09:21:53;;;;;;;;;;;17.70;62.70;;;;;;5070565;28;1674;-71
2023/04/11 09:24:19;;;;;;;;;;;17.70;62.70;;;;;;5070777;28;948;-71
2023/04/11 09:26:44;;;;;;;;;;;17.70;62.70;;;;;;5069920;28;1252;-71
2023/04/11 09:29:10;;;;;;;;;;;17.70;63.50;;;;;;5074110;28;871;-72
2023/04/11 09:31:42;;;;;;;;;;;17.70;62.70;;;;;;5073784;28;828;-70
2023/04/11 09:34:08;;;;;;;;;;;17.70;62.70;;;;;;5070167;28;2302;-70
2023/04/11 09:36:34;;;;;;;;;;;17.70;62.80;;;;;;5069666;28;1824;-70
2023/04/11 09:39:01;;;;;;;;;;;17.70;62.80;;;;;;5072164;28;1664;-70
2023/04/11 09:41:30;;;;;;;;;;;17.70;62.80;;;;;;5070489;28;1601;-70
2023/04/11 09:43:56;;;;;;;;;;;17.70;62.80;;;;;;5067867;28;848;-70
2023/04/11 09:46:21;;;;;;;;;;;17.60;62.80;;;;;;5071044;28;1431;-70
2023/04/11 09:48:47;;;;;;;;;;;17.60;62.80;;;;;;5071292;28;836;-70
2023/04/11 09:51:13;;;;;;;;;;;17.70;62.90;;;;;;5053735;28;1255;-70
2023/04/11 09:53:39;;;;;;;;;;;17.70;63.00;;;;;;5074279;28;1909;-70
2023/04/11 09:56:07;;;;;;;;;;;17.60;62.90;;;;;;5073750;28;1357;-70
2023/04/11 09:58:33;;;;;;;;;;;17.60;63.00;;;;;;5073295;28;1248;-70
2023/04/11 10:00:59;;;;;;;;;;;17.60;63.00;;;;;;5071490;28;822;-70
2023/04/11 10:03:25;;;;;;;;;;;17.60;63.00;;;;;;5073669;28;883;-70
2023/04/11 10:05:54;;;;;;;;;;;17.60;63.00;;;;;;5067112;28;1323;-70
2023/04/11 10:08:27;;;;;;;;;;;17.60;62.90;;;;;;5070925;28;864;-70
2023/04/11 10:10:53;;;;;;;;;;;17.60;62.90;;;;;;5072378;28;879;-71
2023/04/11 10:13:33;;;;;;;;;;;17.60;62.90;;;;;;5069313;28;1968;-70
2023/04/11 10:16:08;;;;;;;;;;;17.60;62.90;;;;;;5068577;28;1365;-70
2023/04/11 10:18:35;;;;;;;;;;;17.70;62.90;;;;;;5063983;28;1195;-70
2023/04/11 10:21:00;;;;;;;;;;;17.70;62.90;;;;;;5071349;28;848;-70
2023/04/11 10:23:26;;;;;;;;;;;17.70;62.90;;;;;;5068974;28;876;-70
2023/04/11 10:28:33;;;;;;;;;;;17.70;62.80;;;;;;5461735;23;2228;-71
2023/04/11 10:31:08;;;;;;;;;;;17.70;62.80;;;;;;4985404;28;1512;-71
2023/04/11 10:33:34;;;;;;;;;;;17.70;62.80;;;;;;4989067;28;1918;-70
2023/04/11 10:36:11;;;;;;;;;;;17.70;62.80;;;;;;4989043;28;846;-71
2023/04/11 10:38:42;;;;;;;;;;;17.70;63.50;;;;;;4972872;28;1265;-71
2023/04/11 10:41:17;;;;;;;;;;;17.70;62.70;;;;;;4989417;28;941;-70
2023/04/11 10:43:43;;;;;;;;;;;17.70;62.70;;;;;;4990389;28;1616;-70
2023/04/11 10:46:19;;;;;;;;;;;17.70;62.70;;;;;;4990277;28;840;-70
2023/04/11 10:49:00;;;;;;;;;;;17.70;62.70;;;;;;4989487;28;1339;-70
2023/04/11 10:51:26;;;;;;;;;;;17.70;62.80;;;;;;4990021;28;855;-69
2023/04/11 10:53:52;;;;;;;;;;;17.70;62.60;;;;;;4990178;28;1914;-70
2023/04/11 10:56:36;;;;;;;;;;;17.70;62.60;;;;;;4969664;28;1371;-70
2023/04/11 10:59:02;;;;;;;;;;;17.70;62.60;;;;;;4993278;28;1198;-70
2023/04/11 11:01:27;;;;;;;;;;;17.80;62.60;;;;;;4992627;28;848;-70
2023/04/11 11:03:55;;;;;;;;;;;17.80;62.60;;;;;;4989674;28;863;-71
2023/04/11 11:06:20;;;;;;;;;;;17.80;62.70;;;;;;4989117;28;867;-71
2023/04/11 11:08:46;;;;;;;;;;;17.70;62.60;;;;;;4992127;28;1628;-69
2023/04/11 11:11:12;;;;;;;;;;;17.80;62.60;;;;;;4978460;28;876;-70
2023/04/11 11:13:41;;;;;;;;;;;17.70;62.60;;;;;;4993529;28;1986;-70
2023/04/11 11:16:07;;;;;;;;;;;17.70;62.60;;;;;;4993166;28;899;-70
2023/04/11 11:18:33;;;;;;;;;;;17.80;62.70;;;;;;4989473;28;1324;-70
2023/04/11 11:20:58;;;;;;;;;;;17.70;62.70;;;;;;4971484;28;1074;-69
2023/04/11 11:23:24;;;;;;;;;;;17.80;62.80;;;;;;4992298;28;863;-69
2023/04/11 11:25:53;;;;;;;;;;;17.70;62.70;;;;;;4993755;28;906;-69
2023/04/11 11:28:19;;;;;;;;;;;17.70;62.80;;;;;;4992816;28;1326;-69
2023/04/11 11:30:51;;;;;;;;;;;17.70;62.90;;;;;;4993271;28;915;-69
2023/04/11 11:33:17;;;;;;;;;;;17.70;62.80;;;;;;4991982;28;1945;-69
2023/04/11 11:35:44;;;;;;;;;;;17.70;62.90;;;;;;4992041;28;867;-69
2023/04/11 11:38:10;;;;;;;;;;;17.70;62.90;;;;;;4992018;28;1396;-70
2023/04/11 11:40:35;;;;;;;;;;;17.70;62.90;;;;;;4991798;28;906;-69
2023/04/11 11:43:01;;;;;;;;;;;17.70;63.00;;;;;;4992049;28;840;-69
2023/04/11 11:45:26;;;;;;;;;;;17.70;63.00;;;;;;4986286;28;832;-70
2023/04/11 11:47:52;;;;;;;;;;;17.70;63.00;;;;;;4988160;28;1213;-69
2023/04/11 11:50:27;;;;;;;;;;;17.70;63.00;;;;;;4992656;28;883;-69
2023/04/11 11:52:53;;;;;;;;;;;17.70;63.10;;;;;;4991492;28;1969;-70
2023/04/11 11:55:21;;;;;;;;;;;17.60;63.00;;;;;;4978674;28;882;-69
2023/04/11 11:57:47;;;;;;;;;;;17.70;63.10;;;;;;4992434;28;1245;-70
2023/04/11 12:00:13;;;;;;;;;;;17.70;63.10;;;;;;4990732;28;850;-70
2023/04/11 12:02:40;;;;;;;;;;;17.60;63.10;;;;;;4991968;28;844;-70
2023/04/11 12:05:06;;;;;;;;;;;17.70;63.20;;;;;;4989958;28;912;-69
2023/04/11 12:07:38;;;;;;;;;;;17.70;63.20;;;;;;4991554;28;1319;-69
2023/04/11 12:10:08;;;;;;;;;;;17.60;63.10;;;;;;4992241;28;858;-70
2023/04/11 12:12:37;;;;;;;;;;;17.70;63.20;;;;;;4992445;28;1951;-69
2023/04/11 12:15:02;;;;;;;;;;;17.60;63.10;;;;;;4993009;28;911;-70
2023/04/11 12:17:32;;;;;;;;;;;17.70;63.20;;;;;;4987702;28;1299;-70
2023/04/11 12:19:58;;;;;;;;;;;17.60;63.10;;;;;;4980148;28;1340;-70
2023/04/11 12:22:23;;;;;;;;;;;17.70;63.20;;;;;;4992963;28;864;-69
2023/04/11 12:24:50;;;;;;;;;;;17.70;63.20;;;;;;4992714;28;823;-69
2023/04/11 12:27:16;;;;;;;;;;;17.60;63.10;;;;;;4991974;28;1242;-70
2023/04/11 12:29:41;;;;;;;;;;;17.70;63.20;;;;;;4992510;28;795;-69
2023/04/11 12:32:07;;;;;;;;;;;17.70;63.20;;;;;;4992576;28;1971;-69
2023/04/11 12:34:32;;;;;;;;;;;17.60;63.20;;;;;;4992441;28;891;-69
2023/04/11 12:36:58;;;;;;;;;;;17.60;63.20;;;;;;4992643;28;1319;-69
2023/04/11 12:39:23;;;;;;;;;;;17.60;63.20;;;;;;4992081;28;850;-69
2023/04/11 12:41:49;;;;;;;;;;;17.70;63.20;;;;;;4990912;28;1168;-70
2023/04/11 12:44:14;;;;;;;;;;;17.70;63.20;;;;;;4990916;28;1574;-69
2023/04/11 12:46:40;;;;;;;;;;;17.70;63.20;;;;;;4991792;28;972;-70
2023/04/11 12:49:05;;;;;;;;;;;17.60;63.20;;;;;;4991629;28;1323;-69
2023/04/11 12:51:31;;;;;;;;;;;17.60;63.20;;;;;;4991955;28;849;-69
2023/04/11 12:53:56;;;;;;;;;;;17.60;63.20;;;;;;4991740;28;1918;-69
2023/04/11 12:56:22;;;;;;;;;;;17.60;63.30;;;;;;4990752;28;1404;-69
2023/04/11 12:58:47;;;;;;;;;;;17.60;63.20;;;;;;4972487;28;1261;-69
2023/04/11 13:01:13;;;;;;;;;;;17.60;63.30;;;;;;4991542;28;863;-69
2023/04/11 13:03:38;;;;;;;;;;;17.60;63.30;;;;;;4991393;28;828;-69
2023/04/11 13:06:04;;;;;;;;;;;17.60;63.30;;;;;;4988366;28;1488;-69
2023/04/11 13:08:29;;;;;;;;;;;17.60;63.30;;;;;;4989604;28;1220;-69
2023/04/11 13:10:55;;;;;;;;;;;17.60;63.30;;;;;;4991553;28;843;-71
2023/04/11 13:13:20;;;;;;;;;;;17.60;63.40;;;;;;4991376;28;1969;-71
2023/04/11 13:15:47;;;;;;;;;;;17.60;63.30;;;;;;4991627;28;1097;-70
2023/04/11 13:18:13;;;;;;;;;;;17.60;63.40;;;;;;4989751;28;1362;-71
2023/04/11 13:20:38;;;;;;;;;;;17.60;63.40;;;;;;4990614;28;831;-71
2023/04/11 13:23:04;;;;;;;;;;;17.60;63.40;;;;;;4991249;28;925;-71
2023/04/11 13:25:29;;;;;;;;;;;17.60;63.40;;;;;;4990980;28;863;-70
2023/04/11 13:27:55;;;;;;;;;;;17.60;63.30;;;;;;4990805;28;1683;-71
2023/04/11 13:30:20;;;;;;;;;;;17.60;63.30;;;;;;4991333;28;884;-71
2023/04/11 13:32:46;;;;;;;;;;;17.60;63.30;;;;;;4991475;28;1910;-71
2023/04/11 13:35:11;;;;;;;;;;;17.60;63.40;;;;;;4991347;28;863;-70
2023/04/11 13:37:37;;;;;;;;;;;17.60;63.30;;;;;;4990816;28;1342;-70
2023/04/11 13:40:05;;;;;;;;;;;17.60;63.30;;;;;;4991171;28;842;-70
2023/04/11 13:42:31;;;;;;;;;;;17.60;63.30;;;;;;4991408;28;860;-70
2023/04/11 13:44:56;;;;;;;;;;;17.60;63.30;;;;;;4991235;28;1734;-70
2023/04/11 13:47:21;;;;;;;;;;;17.70;63.40;;;;;;4990913;28;1347;-69
2023/04/11 13:49:47;;;;;;;;;;;17.60;63.30;;;;;;4988614;28;942;-70
2023/04/11 13:52:12;;;;;;;;;;;17.70;63.40;;;;;;4991035;28;1969;-69
2023/04/11 13:54:38;;;;;;;;;;;17.60;63.30;;;;;;4990960;28;899;-70
2023/04/11 13:57:06;;;;;;;;;;;17.60;63.30;;;;;;4990798;28;1244;-70
2023/04/11 13:59:31;;;;;;;;;;;17.60;63.30;;;;;;4986565;28;914;-70
2023/04/11 14:01:57;;;;;;;;;;;17.70;63.40;;;;;;4989742;28;898;-69
2023/04/11 14:04:22;;;;;;;;;;;17.60;63.30;;;;;;4990715;28;883;-69
2023/04/11 14:06:48;;;;;;;;;;;17.60;63.30;;;;;;4989799;28;880;-70
2023/04/11 14:09:13;;;;;;;;;;;17.60;63.30;;;;;;4990821;28;1249;-70
2023/04/11 14:11:39;;;;;;;;;;;17.60;63.30;;;;;;4991369;28;852;-69
2023/04/11 14:14:05;;;;;;;;;;;17.70;63.40;;;;;;4989576;28;1903;-69
2023/04/11 14:16:30;;;;;;;;;;;17.60;63.40;;;;;;4988676;28;897;-69
2023/04/11 14:18:56;;;;;;;;;;;17.60;63.30;;;;;;4990115;28;1487;-69
2023/04/11 14:21:21;;;;;;;;;;;17.60;63.30;;;;;;4986511;28;1189;-69
2023/04/11 14:23:47;;;;;;;;;;;17.60;63.40;;;;;;4986201;28;951;-69
2023/04/11 14:26:12;;;;;;;;;;;17.60;63.40;;;;;;4989220;28;865;-69
2023/04/11 14:28:38;;;;;;;;;;;17.60;63.50;;;;;;4990147;28;1354;-69
2023/04/11 14:31:03;;;;;;;;;;;17.60;63.40;;;;;;4992012;28;939;-69
2023/04/11 14:33:29;;;;;;;;;;;17.60;63.40;;;;;;4994452;28;1903;-69